This is the latest recevied weather packets stored in our database for station/object BV5AB-33. If no packets are shown the sender has not sent any weather packets the latest 10 day(s).
| Time | Temp. | Humidity | Pressure | Rain* | Wind** | Luminosity | Snow |
|---|---|---|---|---|---|---|---|
| 1777490399 | 23.89° C | 79% | 981.6 hPa | 0 mm | - | - | - |
| 1777489799 | 23.89° C | 79% | 981.6 hPa | 0 mm | - | - | - |
| 1777485300 | 24.44° C | 79% | 982.1 hPa | 0 mm | - | - | - |
| 1777483500 | 24.44° C | 79% | 982.3 hPa | 0 mm | - | - | - |
| 1777480801 | 24.44° C | 79% | 982.9 hPa | 0 mm | - | - | - |
| 1777478100 | 25° C | 79% | 983.5 hPa | 0 mm | - | - | - |
| 1777475100 | 25° C | 79% | 983.8 hPa | 1.27 mm | - | - | - |
| 1777474500 | 25° C | 80% | 983.8 hPa | 3.3 mm | - | - | - |
| 1777471500 | 25.56° C | 78% | 983.9 hPa | 6.35 mm | - | - | - |
| 1777467300 | 25.56° C | 77% | 983.6 hPa | 0 mm | - | - | - |
| 1777466701 | 25.56° C | 77% | 983.7 hPa | 0 mm | - | - | - |
| 1777465501 | 25.56° C | 77% | 983.5 hPa | 0 mm | - | - | - |
| 1777464601 | 25.56° C | 79% | 983.2 hPa | 0 mm | - | - | - |
| 1777461300 | 26.11° C | 77% | 982.4 hPa | 0 mm | - | - | - |
| 1777458000 | 26.11° C | 75% | 981.6 hPa | 1.27 mm | - | - | - |
| 1777455600 | 26.67° C | 74% | 981 hPa | 0 mm | - | - | - |
| 1777453801 | 26.67° C | 74% | 980.5 hPa | 0 mm | - | - | - |
| 1777453500 | 26.67° C | 74% | 980.3 hPa | 0 mm | - | - | - |
| 1777450201 | 26.67° C | 73% | 980.6 hPa | 0.25 mm | - | - | - |
| 1777449001 | 26.67° C | 73% | 980.4 hPa | 2.79 mm | - | - | - |
| 1777447200 | 27.22° C | 72% | 980.5 hPa | 3.81 mm | - | - | - |
| 1777446901 | 27.22° C | 72% | 980.6 hPa | 4.32 mm | - | - | - |
| 1777445701 | 27.22° C | 71% | 980.8 hPa | 1.52 mm | - | - | - |
| 1777444201 | 27.78° C | 65% | 980.9 hPa | 1.52 mm | - | - | - |
| 1777442101 | 28.89° C | 57% | 980.9 hPa | 0 mm | - | - | - |
* Rain latest hour (hover to see other rain measurements)
** Current wind speed in m/s (hover to see current wind gust speed)